66B weather

Gillespie Field
Meddybemps, Maine, United States

Public forecast

Using degrees Fahrenheit for public forecast. Weather courtesy of forecast.io.

METAR (pilot weather report)

Closest report is Hancock County-Bar Harbor Airport, 55.6 nm (102.9 km) SW. Retrieved 2019/08/23 23:56 UTC (6 minutes ago):

KBHB 232356Z AUTO VRB04KT 10SM CLR 20/11 A2994 RMK AO2 SLP140 T02000111 10250 20200 51017

TAF (pilot weather forecast)

Forecast is more than 12 hours old.

Closest forecast is Hancock County-Bar Harbor Airport, 55.6 nm (102.9 km) SW. Retrieved 2019/08/23 00:30 UTC (24 hours ago):

TAF KBHB 232329Z 2400/2424 30004KT P6SM FEW060 FM241400 01010KT P6SM SCT060